Time;durP1;ratioP1;P1;durP2;ratioP2;P2;SDS_P1;SDS_P2;PMS_P1;PMS_P2;Temp;Humidity;BMP_temperature;BMP_pressure;BME280_temperature;BME280_humidity;BME280_pressure;Samples;Min_cycle;Max_cycle;Signal;HPM_P1;HPM_P2
2022/05/12 00:02:01;;;;;;;;;;;;;;;11.17;100.00;99254.13;5071460;28;20005;-74
2022/05/12 00:04:28;;;;;;;;;;;;;;;11.10;100.00;-25378.47;5056335;28;19916;-73
2022/05/12 00:06:53;;;;;;;;;;;;;;;11.08;100.00;-25377.75;5073285;28;19928;-76
2022/05/12 00:09:19;;;;;;;;;;;;;;;11.01;100.00;-25375.69;5074183;28;19913;-74
2022/05/12 00:11:44;;;;;;;;;;;;;;;11.02;100.00;-25376.13;5073431;28;20015;-74
2022/05/12 00:14:10;;;;;;;;;;;;;;;11.02;100.00;-25376.13;5075218;28;19982;-74
2022/05/12 00:16:35;;;;;;;;;;;;;;;10.93;100.00;-25373.50;5075099;28;19913;-74
2022/05/12 00:19:00;;;;;;;;;;;;;;;10.86;100.00;-25371.59;5073719;28;20391;-74
2022/05/12 00:21:26;;;;;;;;;;;;;;;10.90;100.00;-25372.75;5074087;28;19913;-73
2022/05/12 00:23:57;;;;;;;;;;;;;;;10.91;100.00;-25372.91;5075824;28;19917;-75
2022/05/12 00:26:26;;;;;;;;;;;;;;;10.86;100.00;-25371.44;5073039;28;19974;-75
2022/05/12 00:28:52;;;;;;;;;;;;;;;10.81;100.00;-25369.97;5073581;28;19988;-75
2022/05/12 00:31:17;;;;;;;;;;;;;;;10.81;100.00;-25370.13;5073071;28;19985;-75
2022/05/12 00:33:43;;;;;;;;;;;;;;;10.81;100.00;-25370.13;5073391;28;20356;-75
2022/05/12 00:36:08;;;;;;;;;;;;;;;10.81;100.00;-25370.13;5075063;28;19927;-75
2022/05/12 00:38:33;;;;;;;;;;;;;;;10.78;100.00;-25369.38;5056188;28;20015;-74
2022/05/12 00:40:59;;;;;;;;;;;;;;;10.79;100.00;-25369.53;5073579;28;19928;-77
2022/05/12 00:43:44;;;;;;;;;;;;;;;10.73;100.00;-25367.91;5056848;28;19920;-77
2022/05/12 00:46:13;;;;;;;;;;;;;;;10.76;100.00;-25368.66;5073061;28;19916;-77
2022/05/12 00:48:38;;;;;;;;;;;;;;;10.73;100.00;-25367.91;5074540;28;19920;-77
2022/05/12 00:51:04;;;;;;;;;;;;;;;10.74;100.00;-25368.22;5073193;28;19923;-77
2022/05/12 00:53:31;;;;;;;;;;;;;;;10.73;100.00;-25367.78;5079988;28;20388;-75
2022/05/12 00:55:58;;;;;;;;;;;;;;;10.75;100.00;-25368.50;5077519;28;19917;-75
2022/05/12 00:58:23;;;;;;;;;;;;;;;10.73;100.00;-25367.91;5077510;28;19923;-76
2022/05/12 01:00:48;;;;;;;;;;;;;;;10.69;100.00;-25366.75;5076402;28;19921;-75
2022/05/12 01:03:19;;;;;;;;;;;;;;;10.68;100.00;-25366.31;5077099;28;19964;-78
2022/05/12 01:05:45;;;;;;;;;;;;;;;10.68;100.00;-25366.47;5076808;28;20433;-77
2022/05/12 01:08:12;;;;;;;;;;;;;;;10.65;100.00;-25365.56;5077008;28;20015;-77
2022/05/12 01:10:39;;;;;;;;;;;;;;;10.62;100.00;-25364.69;5077266;28;19946;-77
2022/05/12 01:13:10;;;;;;;;;;;;;;;10.66;100.00;-25365.88;5076288;28;19916;-75
2022/05/12 01:15:35;;;;;;;;;;;;;;;10.66;100.00;-25365.88;5076838;28;20367;-78
2022/05/12 01:18:05;;;;;;;;;;;;;;;10.67;100.00;-25366.16;5094964;28;19934;-77
2022/05/12 01:20:31;;;;;;;;;;;;;;;10.66;100.00;-25365.88;5076465;28;20454;-75
2022/05/12 01:23:02;;;;;;;;;;;;;;;10.66;100.00;-25365.88;5072260;28;20023;-75
2022/05/12 01:25:29;;;;;;;;;;;;;;;10.63;100.00;-25365.00;5073628;28;19920;-75
2022/05/12 01:27:54;;;;;;;;;;;;;;;10.66;100.00;-25365.72;5072188;28;19916;-76
2022/05/12 01:30:20;;;;;;;;;;;;;;;10.63;100.00;-25364.84;5072750;28;19943;-74
2022/05/12 01:32:49;;;;;;;;;;;;;;;10.61;100.00;-25364.41;5072664;28;20036;-73
2022/05/12 01:35:15;;;;;;;;;;;;;;;10.60;100.00;-25364.25;5071960;28;19920;-74
2022/05/12 01:37:42;;;;;;;;;;;;;;;10.55;100.00;-25362.78;5071937;28;19920;-73
2022/05/12 01:40:08;;;;;;;;;;;;;;;10.56;100.00;-25363.09;5072630;28;19913;-76
2022/05/12 01:42:34;;;;;;;;;;;;;;;10.58;100.00;-25363.53;5071920;28;20003;-72
2022/05/12 01:44:59;;;;;;;;;;;;;;;10.51;100.00;-25361.63;5073293;28;20019;-75
2022/05/12 01:47:24;;;;;;;;;;;;;;;10.56;100.00;-25362.94;5055651;28;19916;-78
2022/05/12 01:49:50;;;;;;;;;;;;;;;10.57;100.00;-25363.22;5054677;28;19927;-74
2022/05/12 01:52:16;;;;;;;;;;;;;;;10.52;100.00;-25361.91;5055456;28;19916;-73
2022/05/12 01:54:41;;;;;;;;;;;;;;;10.54;100.00;-25362.34;5077354;28;19946;-74
2022/05/12 01:57:07;;;;;;;;;;;;;;;10.50;100.00;-25361.19;5091785;28;19971;-75
2022/05/12 01:59:33;;;;;;;;;;;;;;;10.55;100.00;-25362.63;5091935;28;19923;-74
2022/05/12 02:01:59;;;;;;;;;;;;;;;10.52;100.00;-25361.75;5086389;28;19920;-73
2022/05/12 02:04:27;;;;;;;;;;;;;;;10.49;100.00;-25361.03;5071277;28;19940;-74
2022/05/12 02:06:52;;;;;;;;;;;;;;;10.49;100.00;-25360.88;5086861;28;19981;-73
2022/05/12 02:09:17;;;;;;;;;;;;;;;10.49;100.00;-25361.03;5074979;28;19978;-74
2022/05/12 02:11:43;;;;;;;;;;;;;;;10.47;100.00;-25360.44;5074623;28;19920;-74
2022/05/12 02:14:11;;;;;;;;;;;;;;;10.53;100.00;-25362.06;5075079;28;20453;-75
2022/05/12 02:16:36;;;;;;;;;;;;;;;10.59;100.00;-25363.81;5089934;28;19987;-74
2022/05/12 02:19:04;;;;;;;;;;;;;;;10.57;100.00;-25363.38;5071086;28;20320;-72
2022/05/12 02:21:30;;;;;;;;;;;;;;;10.58;100.00;-25363.66;5072632;28;19921;-74
2022/05/12 02:23:55;;;;;;;;;;;;;;;10.57;100.00;-25363.38;5071184;28;19963;-75
2022/05/12 02:26:21;;;;;;;;;;;;;;;10.50;100.00;-25361.19;5071293;28;19917;-73
2022/05/12 02:28:46;;;;;;;;;;;;;;;10.52;100.00;-25361.91;5071312;28;20007;-75
2022/05/12 02:31:12;;;;;;;;;;;;;;;10.57;100.00;-25363.38;5070880;28;19970;-74
2022/05/12 02:33:38;;;;;;;;;;;;;;;10.54;100.00;-25362.50;5070676;28;19939;-74
2022/05/12 02:36:04;;;;;;;;;;;;;;;10.58;100.00;-25363.53;5071678;28;19967;-75
2022/05/12 02:38:29;;;;;;;;;;;;;;;10.59;100.00;-25363.81;5070672;28;19920;-76
2022/05/12 02:40:54;;;;;;;;;;;;;;;10.54;100.00;-25362.50;5071354;28;19919;-78
2022/05/12 02:43:24;;;;;;;;;;;;;;;10.55;100.00;-25362.78;5071442;28;19966;-76
2022/05/12 02:45:56;;;;;;;;;;;;;;;10.50;100.00;-25361.19;5071266;28;20015;-79
2022/05/12 02:48:24;;;;;;;;;;;;;;;10.45;100.00;-25359.72;5073112;28;20303;-75
2022/05/12 02:50:49;;;;;;;;;;;;;;;10.43;100.00;-25359.13;5072152;28;19965;-77
2022/05/12 02:53:17;;;;;;;;;;;;;;;10.37;100.00;-25357.66;5089081;28;20314;-78
2022/05/12 02:55:42;;;;;;;;;;;;;;;10.32;100.00;-25356.03;5075493;28;19939;-77
2022/05/12 02:58:08;;;;;;;;;;;;;;;10.31;100.00;-25355.88;5075735;28;20348;-78
2022/05/12 03:00:33;;;;;;;;;;;;;;;10.31;100.00;-25355.75;5075020;28;19925;-77
2022/05/12 03:03:00;;;;;;;;;;;;;;;10.30;100.00;-25355.59;5075218;28;19958;-77
2022/05/12 03:05:26;;;;;;;;;;;;;;;10.29;100.00;-25355.31;5093182;28;20344;-76
2022/05/12 03:07:52;;;;;;;;;;;;;;;10.29;100.00;-25355.31;5074251;28;19966;-77
2022/05/12 03:10:17;;;;;;;;;;;;;;;10.23;100.00;-25353.69;5073450;28;20379;-74
2022/05/12 03:12:44;;;;;;;;;;;;;;;10.23;100.00;-25353.53;5091389;28;19916;-77
2022/05/12 03:15:10;;;;;;;;;;;;;;;10.16;100.00;-25351.47;5073759;28;19923;-77
2022/05/12 03:17:35;;;;;;;;;;;;;;;10.18;100.00;-25352.22;5060214;28;19913;-74
2022/05/12 03:20:02;;;;;;;;;;;;;;;10.14;100.00;-25350.91;5071438;28;19923;-75
2022/05/12 03:22:27;;;;;;;;;;;;;;;10.14;100.00;-25350.91;5053514;28;19916;-74
2022/05/12 03:24:52;;;;;;;;;;;;;;;10.10;100.00;-25349.72;5053471;28;19920;-74
2022/05/12 03:27:18;;;;;;;;;;;;;;;10.11;100.00;-25350.16;5053449;28;19923;-75
2022/05/12 03:29:43;;;;;;;;;;;;;;;10.07;100.00;-25349.00;5053320;28;20503;-75
2022/05/12 03:32:10;;;;;;;;;;;;;;;10.05;100.00;-25348.41;5071508;28;19952;-76
2022/05/12 03:34:37;;;;;;;;;;;;;;;10.02;100.00;-25347.66;5070789;28;20022;-74
2022/05/12 03:37:08;;;;;;;;;;;;;;;10.00;100.00;-25346.94;5053099;28;21802;-75
2022/05/12 03:39:35;;;;;;;;;;;;;;;10.00;100.00;-25347.09;5070059;28;19955;-75
2022/05/12 03:42:00;;;;;;;;;;;;;;;9.97;100.00;-25346.06;5067616;28;19977;-74
2022/05/12 03:47:12;;;;;;;;;;;;;;;9.97;100.00;-25346.19;5092348;28;19946;-75
2022/05/12 03:49:38;;;;;;;;;;;;;;;9.98;100.00;-25346.50;5089849;28;19969;-76
2022/05/12 03:52:03;;;;;;;;;;;;;;;10.01;100.00;-25347.38;5091265;28;19916;-74
2022/05/12 03:54:30;;;;;;;;;;;;;;;10.04;100.00;-25348.25;5073868;28;19973;-75
2022/05/12 03:56:55;;;;;;;;;;;;;;;10.13;100.00;-25350.75;5090196;28;19923;-74
2022/05/12 03:59:20;;;;;;;;;;;;;;;10.07;100.00;-25349.00;5090807;28;19916;-75
2022/05/12 04:01:45;;;;;;;;;;;;;;;10.09;100.00;-25349.44;5090044;28;20451;-74
2022/05/12 04:04:11;;;;;;;;;;;;;;;10.07;100.00;-25349.00;5089566;28;19969;-75
2022/05/12 04:06:36;;;;;;;;;;;;;;;10.11;100.00;-25350.16;5076655;28;19917;-76
2022/05/12 04:09:02;;;;;;;;;;;;;;;10.07;100.00;-25349.13;5070800;28;20276;-75
2022/05/12 04:11:27;;;;;;;;;;;;;;;10.13;100.00;-25350.75;5072410;28;19920;-75
2022/05/12 04:13:55;;;;;;;;;;;;;;;10.16;100.00;-25351.63;5091452;28;20332;-74
2022/05/12 04:16:20;;;;;;;;;;;;;;;10.16;100.00;-25351.47;5073695;28;19920;-74
2022/05/12 04:18:45;;;;;;;;;;;;;;;10.19;100.00;-25352.38;5073165;28;20006;-74
2022/05/12 04:21:11;;;;;;;;;;;;;;;10.29;100.00;-25355.16;5057086;28;19920;-75
2022/05/12 04:23:36;;;;;;;;;;;;;;;10.36;100.00;-25357.38;5074711;28;19986;-76
2022/05/12 04:26:02;;;;;;;;;;;;;;;10.74;100.00;-25368.22;5057286;28;19928;-75
2022/05/12 04:28:27;;;;;;;;;;;;;;;11.43;100.00;-25387.72;5073806;28;19916;-76
2022/05/12 04:30:52;;;;;;;;;;;;;;;12.30;100.00;-25412.44;5072506;28;19912;-72
2022/05/12 04:36:01;;;;;;;;;;;;;;;14.03;100.00;-25461.53;5074703;28;19927;-73
2022/05/12 04:38:27;;;;;;;;;;;;;;;14.91;100.00;-25486.59;5051926;28;19920;-74
2022/05/12 04:40:52;;;;;;;;;;;;;;;14.87;100.00;-25485.56;5052433;28;20410;-74
2022/05/12 04:43:19;;;;;;;;;;;;;;;14.89;100.00;-25486.00;5058692;28;20305;-75
2022/05/12 04:45:44;;;;;;;;;;;;;;;14.89;100.00;-22525.47;5090255;28;19943;-74
2022/05/12 04:48:09;;;;;;;;;;;;;;;14.33;100.00;-12971.69;5091698;28;20280;-78
2022/05/12 04:50:36;;;;;;;;;;;;;;;13.84;100.00;-9015.75;5077861;28;19923;-74
2022/05/12 04:53:03;;;;;;;;;;;;;;;13.54;100.00;-10002.88;5077760;28;19923;-77
2022/05/12 04:55:29;;;;;;;;;;;;;;;13.63;100.00;-10990.94;5078070;28;19920;-77
2022/05/12 04:57:57;;;;;;;;;;;;;;;13.57;100.00;-11977.97;5078026;28;19916;-78
2022/05/12 05:00:36;;;;;;;;;;;;;;;13.40;100.00;-11647.81;5081935;28;19920;-79
2022/05/12 05:03:05;;;;;;;;;;;;;;;13.36;100.00;-15922.19;5057085;28;19924;-78
2022/05/12 05:05:30;;;;;;;;;;;;;;;13.25;100.00;-18876.84;5056569;28;19920;-78
2022/05/12 05:07:56;;;;;;;;;;;;;;;13.43;100.00;-22162.88;5056516;28;19917;-78
2022/05/12 05:10:21;;;;;;;;;;;;;;;13.91;100.00;-23815.53;5057001;28;19919;-79
2022/05/12 05:12:46;;;;;;;;;;;;;;;14.92;100.00;-21539.31;5056258;28;19951;-79
2022/05/12 05:15:13;;;;;;;;;;;;;;;15.73;100.00;-11332.78;5056972;28;19978;-79
2022/05/12 05:17:39;;;;;;;;;;;;;;;15.85;100.00;5550.25;5056425;28;19912;-78
2022/05/12 05:20:05;;;;;;;;;;;;;;;15.29;100.00;20817.22;5056538;28;19917;-76
2022/05/12 05:22:32;;;;;;;;;;;;;;;14.69;100.00;14478.41;5074150;28;20007;-77
2022/05/12 05:25:00;;;;;;;;;;;;;;;14.47;100.00;9165.03;5057126;28;19971;-78
2022/05/12 05:27:25;;;;;;;;;;;;;;;14.44;100.00;10158.53;5068967;28;20012;-78
2022/05/12 05:29:51;;;;;;;;;;;;;;;14.90;100.00;10171.38;5076147;28;19963;-75
2022/05/12 05:32:16;;;;;;;;;;;;;;;15.16;100.00;14494.75;5074955;28;20429;-75
2022/05/12 05:34:41;;;;;;;;;;;;;;;15.22;100.00;20148.75;5070891;28;20390;-75
2022/05/12 05:37:07;;;;;;;;;;;;;;;15.65;100.00;26164.81;5073357;28;19916;-75
2022/05/12 05:39:33;;;;;;;;;;;;;;;16.68;100.00;36587.25;5071943;28;19916;-75
2022/05/12 05:42:00;;;;;;;;;;;;;;;17.90;100.00;77142.84;5071904;28;19916;-76
2022/05/12 05:44:28;;;;;;;;;;;;;;;18.23;100.00;147312.91;5072060;28;20024;-78
2022/05/12 05:46:53;;;;;;;;;;;;;;;17.27;100.00;147073.72;5073590;28;19948;-77
2022/05/12 05:49:19;;;;;;;;;;;;;;;17.26;100.00;147071.22;5071740;28;20001;-74
2022/05/12 05:54:31;;;;;;;;;;;;;;;17.38;100.00;147100.59;5073032;28;19927;-75
2022/05/12 05:56:57;;;;;;;;;;;;;;;17.09;100.00;147027.72;5068946;28;19927;-75
2022/05/12 05:59:22;;;;;;;;;;;;;;;17.04;100.00;147017.53;5072742;28;19916;-74
2022/05/12 06:01:47;;;;;;;;;;;;;;;17.00;100.00;147007.28;5054275;28;19935;-75
2022/05/12 06:04:13;;;;;;;;;;;;;;;17.48;100.00;147124.84;5053110;28;19923;-74
2022/05/12 06:06:38;;;;;;;;;;;;;;;17.19;100.00;147054.56;5052272;28;19917;-76
2022/05/12 06:09:04;;;;;;;;;;;;;;;17.17;100.00;147049.47;5051633;28;20346;-74
2022/05/12 06:11:29;;;;;;;;;;;;;;;17.06;100.00;147021.34;5058915;28;20066;-77
2022/05/12 06:13:56;;;;;;;;;;;;;;;16.66;100.00;146922.88;5052393;28;19989;-77
2022/05/12 06:16:22;;;;;;;;;;;;;;;16.56;100.00;146896.06;5052086;28;19920;-78
2022/05/12 06:18:47;;;;;;;;;;;;;;;16.38;100.00;146851.38;5068067;28;20023;-77
2022/05/12 06:21:13;;;;;;;;;;;;;;;16.23;100.00;146814.31;5068422;28;20011;-76
2022/05/12 06:23:40;;;;;;;;;;;;;;;15.78;100.00;146704.50;5067872;28;19917;-77
2022/05/12 06:26:06;;;;;;;;;;;;;;;15.90;100.00;146732.56;5067938;28;19916;-75
2022/05/12 06:28:31;;;;;;;;;;;;;;;16.30;100.00;146832.22;5067373;28;19917;-75
2022/05/12 06:30:56;;;;;;;;;;;;;;;16.35;100.00;146844.97;5050506;28;20325;-75
2022/05/12 06:33:22;;;;;;;;;;;;;;;16.86;100.00;146972.78;5067262;28;19916;-74
2022/05/12 06:35:49;;;;;;;;;;;;;;;16.88;100.00;146975.34;5067622;28;20420;-76
2022/05/12 06:38:14;;;;;;;;;;;;;;;16.84;100.00;146966.31;5072156;28;20288;-74
2022/05/12 06:40:40;;;;;;;;;;;;;;;16.25;100.00;146819.41;5070637;28;19924;-77
2022/05/12 06:43:08;;;;;;;;;;;;;;;16.10;100.00;146782.38;5071886;28;19917;-78
2022/05/12 06:45:34;;;;;;;;;;;;;;;15.97;100.00;146751.72;5071557;28;19916;-77
2022/05/12 06:47:59;;;;;;;;;;;;;;;15.69;100.00;146680.16;5071538;28;19923;-77
2022/05/12 06:50:26;;;;;;;;;;;;;;;15.28;100.00;146579.31;5053898;28;19986;-76
2022/05/12 06:52:53;;;;;;;;;;;;;;;15.56;100.00;146649.50;5071697;28;19925;-74
2022/05/12 06:55:19;;;;;;;;;;;;;;;16.37;100.00;146848.81;5072734;28;19975;-76
2022/05/12 06:57:44;;;;;;;;;;;;;;;16.49;100.00;146880.72;5070584;28;20376;-77
2022/05/12 07:00:10;;;;;;;;;;;;;;;16.36;100.00;146847.53;5070656;28;20253;-78
2022/05/12 07:02:36;;;;;;;;;;;;;;;16.04;100.00;146768.31;5070928;28;20343;-77
2022/05/12 07:05:02;;;;;;;;;;;;;;;16.29;100.00;146829.63;5068680;28;19927;-75
2022/05/12 07:07:28;;;;;;;;;;;;;;;16.94;100.00;146991.94;5067129;28;20284;-77
2022/05/12 07:09:54;;;;;;;;;;;;;;;17.92;100.00;147236.16;5084427;28;19921;-78
2022/05/12 07:12:26;;;;;;;;;;;;;;;18.99;100.00;147501.06;5066585;28;20004;-74
2022/05/12 07:14:52;;;;;;;;;;;;;;;20.26;100.00;147817.38;5066861;28;20460;-74
2022/05/12 07:17:21;;;;;;;;;;;;;;;20.79;100.00;147950.66;5067256;28;19997;-77
2022/05/12 07:19:47;;;;;;;;;;;;;;;21.73;100.00;148182.72;5062885;28;20015;-74
2022/05/12 07:27:41;;;;;;;;;;;;;;;22.64;100.00;148409.75;5051545;28;20292;-74
2022/05/12 07:30:07;;;;;;;;;;;;;;;23.10;100.00;148525.31;5066253;28;19913;-74
2022/05/12 07:32:32;;;;;;;;;;;;;;;22.56;100.00;148390.56;5066819;28;19921;-73
2022/05/12 07:34:57;;;;;;;;;;;;;;;22.69;100.00;148423.88;5065723;28;19966;-75
2022/05/12 07:37:23;;;;;;;;;;;;;;;22.11;100.00;148277.59;5051679;28;19924;-76
2022/05/12 07:39:48;;;;;;;;;;;;;;;22.46;100.00;148366.16;5066988;28;20287;-78
2022/05/12 07:42:13;;;;;;;;;;;;;;;22.49;100.00;148372.56;5066744;28;19956;-75
2022/05/12 07:44:40;;;;;;;;;;;;;;;22.19;100.00;148299.41;5066144;28;20289;-76
2022/05/12 07:47:09;;;;;;;;;;;;;;;22.71;100.00;148429.00;5067132;28;19917;-75
2022/05/12 07:49:36;;;;;;;;;;;;;;;22.92;100.00;148480.38;5065828;28;19925;-72
2022/05/12 07:52:03;;;;;;;;;;;;;;;23.47;100.00;148617.72;5066070;28;20016;-73
2022/05/12 07:54:28;;;;;;;;;;;;;;;22.69;100.00;148422.63;5065559;28;19925;-73
2022/05/12 07:56:53;;;;;;;;;;;;;;;22.90;100.00;148476.50;5050678;28;19916;-73
2022/05/12 07:59:19;;;;;;;;;;;;;;;23.39;100.00;148597.19;5065818;28;20011;-75
2022/05/12 08:01:45;;;;;;;;;;;;;;;22.75;100.00;148438.00;5065532;28;19921;-74
2022/05/12 08:04:11;;;;;;;;;;;;;;;22.34;100.00;148336.66;5065873;28;19986;-72
2022/05/12 08:06:36;;;;;;;;;;;;;;;22.29;100.00;148322.50;5050578;28;19920;-72
2022/05/12 08:09:02;;;;;;;;;;;;;;;22.95;100.00;148488.06;5065096;28;19924;-72
2022/05/12 08:11:27;;;;;;;;;;;;;;;22.41;100.00;148353.34;5066163;28;19917;-73
2022/05/12 08:13:53;;;;;;;;;;;;;;;22.93;100.00;148484.22;5049720;28;19916;-73
2022/05/12 08:16:19;;;;;;;;;;;;;;;23.26;100.00;148566.41;5065032;28;19923;-72
2022/05/12 08:18:46;;;;;;;;;;;;;;;23.27;100.00;148568.97;5065395;28;19916;-74
2022/05/12 08:21:13;;;;;;;;;;;;;;;22.54;100.00;148385.41;5066386;28;20319;-73
2022/05/12 08:23:40;;;;;;;;;;;;;;;23.05;100.00;148512.44;5067490;28;19917;-73
2022/05/12 08:26:06;;;;;;;;;;;;;;;22.46;100.00;148364.88;5070082;28;19917;-74
2022/05/12 08:28:31;;;;;;;;;;;;;;;22.78;100.00;148445.72;5069360;28;19923;-73
2022/05/12 08:30:56;;;;;;;;;;;;;;;22.77;100.00;148443.13;5069258;28;20007;-74
2022/05/12 08:33:22;;;;;;;;;;;;;;;22.99;100.00;148498.31;5069733;28;19928;-73
2022/05/12 08:35:47;;;;;;;;;;;;;;;23.17;100.00;148542.03;5069135;28;20373;-74
2022/05/12 08:38:13;;;;;;;;;;;;;;;22.64;100.00;148411.06;5068989;28;20286;-73
2022/05/12 08:40:52;;;;;;;;;;;;;;;22.49;100.00;148373.84;5052615;28;20260;-73
2022/05/12 08:43:21;;;;;;;;;;;;;;;21.69;100.00;148173.75;5069212;28;19916;-74
2022/05/12 08:45:47;;;;;;;;;;;;;;;22.59;100.00;148399.53;5051851;28;19917;-73
2022/05/12 08:48:13;;;;;;;;;;;;;;;22.71;100.00;148429.00;5052685;28;19931;-73
2022/05/12 08:50:40;;;;;;;;;;;;;;;22.88;100.00;148471.34;5051876;28;19916;-73
2022/05/12 08:53:17;;;;;;;;;;;;;;;22.93;100.00;148482.91;5052767;28;19917;-73
2022/05/12 08:55:53;;;;;;;;;;;;;;;23.43;100.00;148608.75;5053736;28;19917;-73
2022/05/12 08:58:18;;;;;;;;;;;;;;;22.88;100.00;148471.34;5053223;28;19928;-73
2022/05/12 09:00:47;;;;;;;;;;;;;;;22.33;100.00;148332.81;5085517;28;19920;-73
2022/05/12 09:03:35;;;;;;;;;;;;;;;21.96;100.00;148241.69;5054197;28;19928;-74
2022/05/12 09:06:02;;;;;;;;;;;;;;;21.43;100.00;148109.56;5067786;28;19967;-74
2022/05/12 09:08:37;;;;;;;;;;;;;;;21.30;100.00;148077.53;5053679;28;20560;-74
2022/05/12 09:11:10;;;;;;;;;;;;;;;20.25;100.00;147814.78;5068995;28;19924;-72
2022/05/12 09:13:41;;;;;;;;;;;;;;;20.02;100.00;147757.16;5067786;28;19917;-75
2022/05/12 09:16:22;;;;;;;;;;;;;;;20.83;100.00;147958.34;5069083;28;19940;-74
2022/05/12 09:18:47;;;;;;;;;;;;;;;20.26;100.00;147817.38;5051692;28;19916;-74
2022/05/12 09:21:18;;;;;;;;;;;;;;;19.54;100.00;147639.31;5053355;28;19917;-73
2022/05/12 09:23:43;;;;;;;;;;;;;;;20.34;100.00;147837.84;5068910;28;20434;-74
2022/05/12 09:26:27;;;;;;;;;;;;;;;20.03;100.00;147759.72;5068558;28;19921;-74
2022/05/12 09:28:54;;;;;;;;;;;;;;;20.61;100.00;147905.72;5051907;28;19916;-74
2022/05/12 09:31:20;;;;;;;;;;;;;;;19.77;100.00;147694.41;5054077;28;19921;-75
2022/05/12 09:33:48;;;;;;;;;;;;;;;19.45;100.00;147614.97;5067728;28;19917;-75
2022/05/12 09:36:19;;;;;;;;;;;;;;;19.41;100.00;147606.00;5068240;28;19967;-75
2022/05/12 09:38:46;;;;;;;;;;;;;;;19.12;100.00;147533.03;5068472;28;19921;-74
2022/05/12 09:41:16;;;;;;;;;;;;;;;18.95;100.00;147492.06;5068134;28;20038;-74
2022/05/12 09:43:41;;;;;;;;;;;;;;;19.34;100.00;147589.38;5052594;28;19923;-74
2022/05/12 09:46:16;;;;;;;;;;;;;;;19.65;100.00;147664.91;5051851;28;20007;-75
2022/05/12 09:48:43;;;;;;;;;;;;;;;19.72;100.00;147682.84;5068110;28;20024;-77
2022/05/12 09:51:23;;;;;;;;;;;;;;;19.52;100.00;147632.91;5068330;28;19913;-73
2022/05/12 09:53:55;;;;;;;;;;;;;;;20.00;100.00;147753.31;5068189;28;20383;-76
2022/05/12 09:56:34;;;;;;;;;;;;;;;19.93;100.00;147735.38;5068198;28;19939;-75
2022/05/12 09:59:02;;;;;;;;;;;;;;;20.09;100.00;147776.38;5068295;28;20335;-73
2022/05/12 10:01:30;;;;;;;;;;;;;;;20.07;100.00;147769.94;5068191;28;20476;-76
2022/05/12 10:09:50;;;;;;;;;;;;;;;19.52;100.00;147632.91;5052355;28;20010;-73
2022/05/12 10:12:25;;;;;;;;;;;;;;;19.27;100.00;147570.19;5050708;28;20051;-77
2022/05/12 10:14:50;;;;;;;;;;;;;;;19.51;100.00;147630.31;5067413;28;20003;-77
2022/05/12 10:17:42;;;;;;;;;;;;;;;19.83;100.00;147711.03;5067433;28;20463;-77
2022/05/12 10:20:09;;;;;;;;;;;;;;;19.74;100.00;147689.22;5047049;28;19924;-75
2022/05/12 10:22:40;;;;;;;;;;;;;;;19.65;100.00;147664.91;5050097;28;19925;-76
2022/05/12 10:25:39;;;;;;;;;;;;;;;20.04;100.00;147763.56;5068026;28;19917;-74
2022/05/12 10:28:18;;;;;;;;;;;;;;;19.37;100.00;147597.06;5021473;28;19932;-73
2022/05/12 10:30:52;;;;;;;;;;;;;;;19.68;100.00;147673.84;5061138;28;20004;-74
2022/05/12 10:33:24;;;;;;;;;;;;;;;19.89;100.00;147725.16;5071427;28;19920;-75
2022/05/12 10:35:58;;;;;;;;;;;;;;;19.65;100.00;147666.16;5070926;28;19939;-78
2022/05/12 10:38:29;;;;;;;;;;;;;;;19.37;100.00;147595.75;5070935;28;19920;-74
2022/05/12 10:41:02;;;;;;;;;;;;;;;19.57;100.00;147645.69;5070631;28;19912;-77
2022/05/12 10:43:54;;;;;;;;;;;;;;;20.07;100.00;147771.25;5053895;28;20073;-77
2022/05/12 10:46:55;;;;;;;;;;;;;;;20.50;100.00;147876.28;5071596;28;19916;-74
2022/05/12 10:49:29;;;;;;;;;;;;;;;20.26;100.00;147818.63;4990589;28;19922;-75
2022/05/12 10:51:54;;;;;;;;;;;;;;;20.14;100.00;147787.91;5059082;28;19917;-75
2022/05/12 10:54:25;;;;;;;;;;;;;;;18.78;100.00;147448.53;5070583;28;19924;-75
2022/05/12 10:57:01;;;;;;;;;;;;;;;19.04;100.00;147512.56;5070500;28;19920;-74
2022/05/12 10:59:46;;;;;;;;;;;;;;;19.19;100.00;147552.25;5070800;28;19978;-76
2022/05/12 11:02:17;;;;;;;;;;;;;;;19.42;100.00;147607.28;5072152;28;19928;-76
2022/05/12 11:04:49;;;;;;;;;;;;;;;18.95;100.00;147490.78;5071098;28;19916;-74
2022/05/12 11:07:24;;;;;;;;;;;;;;;18.94;100.00;147488.22;5071986;28;20391;-73
2022/05/12 11:09:54;;;;;;;;;;;;;;;19.76;100.00;147691.78;5062010;28;19921;-74
2022/05/12 11:12:19;;;;;;;;;;;;;;;19.94;100.00;147737.94;5066750;28;19925;-75
2022/05/12 11:14:52;;;;;;;;;;;;;;;19.39;100.00;147600.91;5051861;28;19920;-75
2022/05/12 11:17:31;;;;;;;;;;;;;;;19.21;100.00;147556.09;5067576;28;20324;-74
2022/05/12 11:20:10;;;;;;;;;;;;;;;19.43;100.00;147609.84;5051557;28;19917;-76
2022/05/12 11:22:39;;;;;;;;;;;;;;;19.82;100.00;147708.47;5051526;28;20301;-78
2022/05/12 11:25:17;;;;;;;;;;;;;;;19.65;100.00;147666.16;5067543;28;19923;-76
2022/05/12 11:27:46;;;;;;;;;;;;;;;19.68;100.00;147672.56;5078148;28;19917;-76
2022/05/12 11:30:14;;;;;;;;;;;;;;;19.79;100.00;147700.78;5070566;28;19921;-76
2022/05/12 11:33:02;;;;;;;;;;;;;;;20.16;100.00;147793.00;5071287;28;19921;-77
2022/05/12 11:35:31;;;;;;;;;;;;;;;20.37;100.00;147844.22;5081198;28;19927;-78
2022/05/12 11:37:59;;;;;;;;;;;;;;;20.31;100.00;147830.16;5092236;28;19916;-76
2022/05/12 11:40:49;;;;;;;;;;;;;;;20.71;100.00;147930.16;5073744;28;19923;-78
2022/05/12 11:46:20;;;;;;;;;;;;;;;20.67;100.00;147919.88;5092351;28;20070;-77
2022/05/12 11:49:06;;;;;;;;;;;;;;;20.47;100.00;147868.59;5073467;28;19920;-78
2022/05/12 11:51:46;;;;;;;;;;;;;;;20.30;100.00;147827.59;5056779;28;19912;-77
2022/05/12 11:54:21;;;;;;;;;;;;;;;20.17;100.00;147794.31;5073790;28;19920;-77
2022/05/12 11:56:56;;;;;;;;;;;;;;;20.70;100.00;147927.56;5063519;28;19920;-77
2022/05/12 11:59:31;;;;;;;;;;;;;;;20.60;100.00;147903.19;5057451;28;20420;-78
2022/05/12 12:02:05;;;;;;;;;;;;;;;20.46;100.00;147867.28;5074914;28;20253;-78
2022/05/12 12:04:46;;;;;;;;;;;;;;;20.31;100.00;147830.16;5058099;28;19913;-76
2022/05/12 12:07:16;;;;;;;;;;;;;;;20.30;100.00;147826.31;5057754;28;19944;-76
2022/05/12 12:09:44;;;;;;;;;;;;;;;20.76;100.00;147941.69;5056970;28;19966;-77
2022/05/12 12:12:11;;;;;;;;;;;;;;;20.68;100.00;147922.47;5074236;28;19917;-75
2022/05/12 12:14:43;;;;;;;;;;;;;;;20.51;100.00;147878.81;5067727;28;19916;-74
2022/05/12 12:17:10;;;;;;;;;;;;;;;19.89;100.00;147725.16;5077882;28;19916;-78
2022/05/12 12:19:52;;;;;;;;;;;;;;;20.30;100.00;147826.31;5077230;28;19912;-77
2022/05/12 12:22:23;;;;;;;;;;;;;;;20.27;100.00;147819.91;5077602;28;20413;-76
2022/05/12 12:25:11;;;;;;;;;;;;;;;20.56;100.00;147892.94;5076093;28;19916;-76
2022/05/12 12:27:52;;;;;;;;;;;;;;;20.19;100.00;147799.44;5074877;28;19920;-75
2022/05/12 12:30:37;;;;;;;;;;;;;;;19.83;100.00;147711.03;5075984;28;19916;-77
2022/05/12 12:33:15;;;;;;;;;;;;;;;20.01;100.00;147754.56;5075652;28;19916;-75
2022/05/12 12:35:54;;;;;;;;;;;;;;;20.34;100.00;147836.53;5075341;28;20488;-74
2022/05/12 12:38:38;;;;;;;;;;;;;;;20.24;100.00;147813.53;5076102;28;19916;-73
2022/05/12 12:41:04;;;;;;;;;;;;;;;20.25;100.00;147814.78;5094084;28;19916;-73
2022/05/12 12:43:34;;;;;;;;;;;;;;;20.14;100.00;147786.63;5075732;28;19930;-74
2022/05/12 12:46:10;;;;;;;;;;;;;;;19.99;100.00;147750.72;5076504;28;19923;-74
2022/05/12 12:48:40;;;;;;;;;;;;;;;19.91;100.00;147730.25;5076241;28;19916;-73
2022/05/12 12:51:05;;;;;;;;;;;;;;;19.68;100.00;147673.84;5075810;28;19911;-77
2022/05/12 12:56:36;;;;;;;;;;;;;;;20.13;100.00;147785.31;5086110;28;19923;-75
2022/05/12 12:59:01;;;;;;;;;;;;;;;20.51;100.00;147878.81;5072411;28;20395;-75
2022/05/12 13:01:45;;;;;;;;;;;;;;;20.54;100.00;147887.81;5073515;28;19913;-75